createdAt,value
2024-05-09T00:02:07.477Z,10.18
2024-05-09T00:04:33.964Z,9.86
2024-05-09T00:07:00.386Z,9.45
2024-05-09T00:09:26.797Z,9.52
2024-05-09T00:11:53.340Z,9.73
2024-05-09T00:14:19.938Z,9.77
2024-05-09T00:16:46.404Z,9.59
2024-05-09T00:19:13.094Z,9.35
2024-05-09T00:21:39.656Z,9.33
2024-05-09T00:24:06.076Z,10.01
2024-05-09T00:26:32.515Z,10.25
2024-05-09T00:28:58.994Z,10.23
2024-05-09T00:31:25.484Z,10.11
2024-05-09T00:33:52.055Z,10.28
2024-05-09T00:36:18.531Z,10.13
2024-05-09T00:38:44.931Z,10.22
2024-05-09T00:41:11.369Z,10.23
2024-05-09T00:43:37.791Z,10.31
2024-05-09T00:46:04.201Z,10.48
2024-05-09T00:48:30.810Z,10.47
2024-05-09T00:50:57.358Z,9.94
2024-05-09T00:53:23.827Z,9.65
2024-05-09T00:55:50.270Z,9.60
2024-05-09T00:58:16.696Z,9.43
2024-05-09T01:00:43.280Z,9.41
2024-05-09T01:03:12.005Z,9.30
2024-05-09T01:05:40.467Z,9.12
2024-05-09T01:08:07.458Z,9.23
2024-05-09T01:10:35.476Z,9.18
2024-05-09T01:13:02.876Z,9.37
2024-05-09T01:15:29.325Z,9.31
2024-05-09T01:17:56.285Z,9.61
2024-05-09T01:20:31.728Z,9.72
2024-05-09T01:23:06.543Z,9.62
2024-05-09T01:25:33.008Z,9.46
2024-05-09T01:27:59.406Z,9.13
2024-05-09T01:30:32.922Z,9.40
2024-05-09T01:33:02.088Z,9.29
2024-05-09T01:35:28.753Z,9.09
2024-05-09T01:37:55.261Z,8.76
2024-05-09T01:40:28.660Z,8.91
2024-05-09T01:43:01.947Z,8.78
2024-05-09T01:45:28.332Z,8.64
2024-05-09T01:47:54.871Z,8.46
2024-05-09T01:50:33.047Z,8.48
2024-05-09T01:53:03.945Z,8.26
2024-05-09T01:55:30.370Z,8.05
2024-05-09T01:57:56.797Z,7.94
2024-05-09T02:00:33.719Z,7.93
2024-05-09T02:03:05.685Z,7.90
2024-05-09T02:05:32.530Z,7.87
2024-05-09T02:07:59.031Z,8.02
2024-05-09T02:10:31.959Z,8.10
2024-05-09T02:12:59.543Z,8.14
2024-05-09T02:15:25.949Z,8.15
2024-05-09T02:17:52.578Z,7.90
2024-05-09T02:20:29.618Z,7.94
2024-05-09T02:23:00.420Z,7.59
2024-05-09T02:25:26.881Z,7.50
2024-05-09T02:27:53.291Z,7.62
2024-05-09T02:30:29.875Z,7.90
2024-05-09T02:33:04.588Z,7.92
2024-05-09T02:35:31.300Z,7.69
2024-05-09T02:37:57.840Z,7.94
2024-05-09T02:40:33.206Z,7.96
2024-05-09T02:43:03.515Z,7.94
2024-05-09T02:45:29.943Z,8.09
2024-05-09T02:47:56.555Z,8.13
2024-05-09T02:50:29.587Z,8.15
2024-05-09T02:53:03.084Z,8.18
2024-05-09T02:55:29.515Z,8.45
2024-05-09T02:57:55.910Z,8.69
2024-05-09T03:00:29.457Z,9.01
2024-05-09T03:03:03.655Z,9.31
2024-05-09T03:05:30.235Z,9.20
2024-05-09T03:07:56.728Z,8.84
2024-05-09T03:10:28.338Z,8.94
2024-05-09T03:12:55.465Z,8.98
2024-05-09T03:15:22.001Z,8.82
2024-05-09T03:17:48.633Z,8.85
2024-05-09T03:20:23.185Z,8.86
2024-05-09T03:22:52.701Z,8.94
2024-05-09T03:25:20.440Z,8.50
2024-05-09T03:27:46.843Z,8.38
2024-05-09T03:30:25.618Z,8.30
2024-05-09T03:32:57.426Z,7.89
2024-05-09T03:35:24.040Z,7.92
2024-05-09T03:37:50.552Z,8.07
2024-05-09T03:40:23.388Z,7.84
2024-05-09T03:42:52.595Z,7.66
2024-05-09T03:45:19.010Z,7.47
2024-05-09T03:47:45.712Z,7.94
2024-05-09T03:50:18.425Z,8.01
2024-05-09T03:52:52.294Z,7.85
2024-05-09T03:55:18.723Z,8.14
2024-05-09T03:57:45.105Z,8.73
2024-05-09T04:00:17.887Z,8.87
2024-05-09T04:02:51.885Z,8.75
2024-05-09T04:05:18.422Z,8.93
2024-05-09T04:07:44.899Z,8.56
2024-05-09T04:10:17.364Z,8.51
2024-05-09T04:12:50.593Z,8.38
2024-05-09T04:15:16.989Z,8.19
2024-05-09T04:17:43.552Z,8.36
2024-05-09T04:20:15.167Z,8.42
2024-05-09T04:22:44.800Z,8.09
2024-05-09T04:25:11.217Z,7.92
2024-05-09T04:27:37.619Z,8.41
2024-05-09T04:30:06.154Z,8.62
2024-05-09T04:32:34.398Z,8.45
2024-05-09T04:35:00.921Z,8.45
2024-05-09T04:37:27.341Z,8.29
2024-05-09T04:39:53.734Z,8.01
2024-05-09T04:42:20.217Z,8.10
2024-05-09T04:44:46.608Z,8.43
2024-05-09T04:47:13.254Z,8.03
2024-05-09T04:49:39.768Z,8.02
2024-05-09T04:52:06.200Z,7.83
2024-05-09T04:54:36.291Z,8.25
2024-05-09T04:57:03.230Z,8.35
2024-05-09T04:59:29.744Z,8.29
2024-05-09T05:01:56.311Z,8.53
2024-05-09T05:04:22.856Z,8.86
2024-05-09T05:06:49.273Z,9.22
2024-05-09T05:09:15.675Z,9.33
2024-05-09T05:11:42.143Z,9.56
2024-05-09T05:14:08.706Z,9.51
2024-05-09T05:16:35.112Z,9.88
2024-05-09T05:19:01.637Z,10.22
2024-05-09T05:21:28.078Z,11.33
2024-05-09T05:23:54.493Z,11.59
2024-05-09T05:26:20.912Z,11.80
2024-05-09T05:28:47.368Z,11.77
2024-05-09T05:31:13.897Z,11.29
2024-05-09T05:33:40.408Z,11.04
2024-05-09T05:36:06.881Z,11.22
2024-05-09T05:38:33.314Z,11.07
2024-05-09T05:40:59.713Z,11.10
2024-05-09T05:43:26.096Z,11.17
2024-05-09T05:45:52.489Z,11.27
2024-05-09T05:48:19.272Z,10.88
2024-05-09T05:50:46.003Z,11.15
2024-05-09T05:53:12.663Z,11.31
2024-05-09T05:55:39.430Z,11.64
2024-05-09T05:58:05.949Z,11.32
2024-05-09T06:00:38.726Z,11.22
2024-05-09T06:03:06.894Z,10.81
2024-05-09T06:05:33.576Z,10.65
2024-05-09T06:08:00.249Z,10.68
2024-05-09T06:10:36.956Z,10.61
2024-05-09T06:13:06.081Z,10.70
2024-05-09T06:15:32.493Z,11.16
2024-05-09T06:17:59.400Z,11.21
2024-05-09T06:20:34.642Z,11.16
2024-05-09T06:23:03.742Z,11.58
2024-05-09T06:25:30.215Z,11.54
2024-05-09T06:27:56.650Z,11.67
2024-05-09T06:30:30.340Z,11.59
2024-05-09T06:33:04.198Z,11.48
2024-05-09T06:35:31.025Z,11.91
2024-05-09T06:37:57.622Z,11.58
2024-05-09T06:40:29.269Z,11.76
2024-05-09T06:43:00.775Z,11.85
2024-05-09T06:45:27.175Z,11.93
2024-05-09T06:47:53.827Z,12.39
2024-05-09T06:50:24.161Z,12.24
2024-05-09T06:52:54.463Z,12.47
2024-05-09T06:55:20.885Z,12.17
2024-05-09T06:57:47.306Z,11.74
2024-05-09T07:00:19.206Z,12.00
2024-05-09T07:02:53.852Z,12.06
2024-05-09T07:05:20.395Z,12.22
2024-05-09T07:07:46.938Z,12.05
2024-05-09T07:10:21.527Z,12.17
2024-05-09T07:12:51.928Z,12.15
2024-05-09T07:15:18.298Z,12.50
2024-05-09T07:17:44.749Z,12.63
2024-05-09T07:20:16.582Z,12.71
2024-05-09T07:22:49.902Z,12.67
2024-05-09T07:25:16.318Z,12.70
2024-05-09T07:27:42.720Z,13.06
2024-05-09T07:30:11.560Z,12.95
2024-05-09T07:32:38.220Z,12.57
2024-05-09T07:35:04.857Z,12.56
2024-05-09T07:37:31.291Z,12.74
2024-05-09T07:39:57.684Z,12.84
2024-05-09T07:42:24.097Z,12.68
2024-05-09T07:44:50.473Z,12.69
2024-05-09T07:48:28.959Z,12.87
2024-05-09T07:51:54.755Z,12.60
2024-05-09T07:55:24.297Z,12.92
2024-05-09T07:57:50.831Z,12.84
2024-05-09T08:00:23.549Z,12.87
2024-05-09T08:02:53.632Z,12.68
2024-05-09T08:05:20.206Z,12.71
2024-05-09T08:07:46.652Z,13.17
2024-05-09T08:10:15.476Z,12.97
2024-05-09T08:12:45.342Z,13.20
2024-05-09T08:15:11.790Z,13.17
2024-05-09T08:17:38.270Z,13.13
2024-05-09T08:20:05.718Z,13.23
2024-05-09T08:22:32.289Z,13.03
2024-05-09T08:24:58.726Z,13.48
2024-05-09T08:27:25.174Z,13.79
2024-05-09T08:29:51.596Z,13.67
2024-05-09T08:32:18.027Z,13.40
2024-05-09T08:34:44.632Z,13.13
2024-05-09T08:37:15.757Z,13.08
2024-05-09T08:39:47.957Z,13.37
2024-05-09T08:42:14.370Z,13.74
2024-05-09T08:44:40.757Z,13.75
2024-05-09T08:47:10.376Z,13.79
2024-05-09T08:49:37.801Z,13.90
2024-05-09T08:52:05.664Z,14.26
2024-05-09T08:54:32.143Z,14.29
2024-05-09T08:56:58.594Z,13.78
2024-05-09T08:59:24.992Z,13.62
2024-05-09T09:01:51.480Z,14.30
2024-05-09T09:04:18.064Z,14.17
2024-05-09T09:06:44.663Z,13.82
2024-05-09T09:09:11.128Z,14.23
2024-05-09T09:11:37.584Z,14.42
2024-05-09T09:14:03.982Z,14.70
2024-05-09T09:16:30.431Z,14.27
2024-05-09T09:18:57.057Z,14.22
2024-05-09T09:21:23.598Z,14.14
2024-05-09T09:23:49.999Z,14.70
2024-05-09T09:26:16.424Z,14.54
2024-05-09T09:28:42.835Z,14.37
2024-05-09T09:31:09.296Z,14.40
2024-05-09T09:33:36.245Z,14.93
2024-05-09T09:36:03.064Z,15.14
2024-05-09T09:38:29.462Z,15.20
2024-05-09T09:40:55.946Z,15.52
2024-05-09T09:43:22.901Z,15.07
2024-05-09T09:45:49.638Z,14.92
2024-05-09T09:48:16.150Z,15.05
2024-05-09T09:50:42.624Z,15.20
2024-05-09T09:53:09.004Z,15.53
2024-05-09T09:55:35.422Z,15.22
2024-05-09T09:58:02.929Z,15.22
2024-05-09T10:00:33.092Z,15.74
2024-05-09T10:03:00.714Z,15.70
2024-05-09T10:05:27.648Z,15.47
2024-05-09T10:07:54.233Z,15.47
2024-05-09T10:10:27.079Z,15.24
2024-05-09T10:12:58.127Z,14.84
2024-05-09T10:15:24.574Z,15.12
2024-05-09T10:17:51.065Z,14.90
2024-05-09T10:20:21.971Z,15.24
2024-05-09T10:22:51.856Z,15.10
2024-05-09T10:25:18.387Z,15.01
2024-05-09T10:27:44.866Z,15.52
2024-05-09T10:30:17.718Z,15.82
2024-05-09T10:32:48.070Z,15.97
2024-05-09T10:35:14.544Z,15.63
2024-05-09T10:37:40.941Z,15.66
2024-05-09T10:40:14.010Z,15.53
2024-05-09T10:42:43.786Z,15.93
2024-05-09T10:45:10.203Z,16.32
2024-05-09T10:47:36.642Z,15.48
2024-05-09T10:50:05.917Z,15.70
2024-05-09T10:52:34.165Z,15.61
2024-05-09T10:55:02.285Z,15.59
2024-05-09T10:57:30.278Z,16.10
2024-05-09T10:59:56.710Z,16.09
2024-05-09T11:02:23.371Z,16.06
2024-05-09T11:04:50.173Z,16.31
2024-05-09T11:07:16.678Z,15.82
2024-05-09T11:09:43.156Z,16.15
2024-05-09T11:12:09.645Z,15.80
2024-05-09T11:14:36.092Z,16.41
2024-05-09T11:17:02.552Z,16.48
2024-05-09T11:19:29.023Z,16.07
2024-05-09T11:21:55.523Z,16.08
2024-05-09T11:24:21.998Z,15.75
2024-05-09T11:26:48.399Z,15.98
2024-05-09T11:29:17.932Z,15.97
2024-05-09T11:31:45.900Z,16.19
2024-05-09T11:34:12.356Z,16.35
2024-05-09T11:36:38.902Z,16.31
2024-05-09T11:39:05.376Z,16.20
2024-05-09T11:41:31.828Z,16.50
2024-05-09T11:43:58.255Z,16.34
2024-05-09T11:46:24.725Z,16.55
2024-05-09T11:48:51.456Z,16.36
2024-05-09T11:51:18.005Z,16.78
2024-05-09T11:53:44.403Z,16.78
2024-05-09T11:56:10.843Z,16.71
2024-05-09T11:58:37.248Z,16.99
2024-05-09T12:01:03.743Z,17.09
2024-05-09T12:03:30.397Z,17.25
2024-05-09T12:05:57.136Z,17.31
2024-05-09T12:08:23.641Z,17.35
2024-05-09T12:10:50.340Z,17.49
2024-05-09T12:13:16.958Z,17.85
2024-05-09T12:15:43.410Z,17.86
2024-05-09T12:18:10.042Z,17.82
2024-05-09T12:20:39.246Z,18.06
2024-05-09T12:23:06.764Z,17.62
2024-05-09T12:25:33.273Z,18.15
2024-05-09T12:27:59.972Z,18.22
2024-05-09T12:30:35.359Z,17.85
2024-05-09T12:33:05.338Z,18.10
2024-05-09T12:35:31.966Z,17.75
2024-05-09T12:37:58.390Z,17.42
2024-05-09T12:40:34.210Z,17.53
2024-05-09T12:43:03.782Z,17.09
2024-05-09T12:45:30.243Z,17.22
2024-05-09T12:47:56.757Z,17.69
2024-05-09T12:50:29.928Z,17.43
2024-05-09T12:52:59.318Z,17.73
2024-05-09T12:55:25.712Z,17.75
2024-05-09T12:57:52.226Z,18.06
2024-05-09T13:00:24.035Z,17.99
2024-05-09T13:02:57.635Z,18.10
2024-05-09T13:05:24.473Z,18.06
2024-05-09T13:07:51.047Z,17.89
2024-05-09T13:10:25.537Z,17.86
2024-05-09T13:12:58.025Z,17.86
2024-05-09T13:15:24.463Z,17.71
2024-05-09T13:17:50.910Z,18.16
2024-05-09T13:20:26.057Z,18.12
2024-05-09T13:22:58.362Z,18.06
2024-05-09T13:25:24.763Z,17.82
2024-05-09T13:27:51.196Z,18.25
2024-05-09T13:30:26.309Z,18.14
2024-05-09T13:33:01.061Z,17.71
2024-05-09T13:35:27.564Z,18.25
2024-05-09T13:37:53.972Z,18.43
2024-05-09T13:40:29.851Z,18.08
2024-05-09T13:43:00.549Z,18.47
2024-05-09T13:45:27.014Z,18.50
2024-05-09T13:47:53.585Z,18.64
2024-05-09T13:50:28.154Z,18.79
2024-05-09T13:53:00.242Z,18.55
2024-05-09T13:55:26.666Z,18.62
2024-05-09T13:57:53.179Z,18.35
2024-05-09T14:00:31.802Z,18.38
2024-05-09T14:03:06.140Z,18.35
2024-05-09T14:05:32.682Z,18.10
2024-05-09T14:07:59.233Z,18.05
2024-05-09T14:10:29.000Z,18.05
2024-05-09T14:12:57.866Z,18.21
2024-05-09T14:15:24.324Z,18.43
2024-05-09T14:17:50.728Z,18.73
2024-05-09T14:20:27.969Z,18.85
2024-05-09T14:22:57.719Z,18.90
2024-05-09T14:25:24.264Z,19.08
2024-05-09T14:27:50.888Z,19.07
2024-05-09T14:30:22.976Z,18.94
2024-05-09T14:32:57.073Z,18.95
2024-05-09T14:35:23.561Z,19.13
2024-05-09T14:37:49.951Z,18.69
2024-05-09T14:40:30.514Z,18.75
2024-05-09T14:43:03.257Z,18.76
2024-05-09T14:45:29.825Z,18.55
2024-05-09T14:47:56.540Z,18.80
2024-05-09T14:50:28.209Z,18.82
2024-05-09T14:53:01.445Z,19.06
2024-05-09T14:55:27.867Z,18.73
2024-05-09T14:57:54.432Z,18.86
2024-05-09T15:00:28.635Z,18.93
2024-05-09T15:02:59.422Z,19.21
2024-05-09T15:05:26.011Z,19.19
2024-05-09T15:07:52.455Z,19.23
2024-05-09T15:10:26.618Z,18.98
2024-05-09T15:12:59.990Z,18.94
2024-05-09T15:15:26.734Z,18.82
2024-05-09T15:17:53.278Z,18.90
2024-05-09T15:20:27.707Z,18.73
2024-05-09T15:23:00.561Z,18.30
2024-05-09T15:25:27.009Z,18.36
2024-05-09T15:27:53.602Z,18.77
2024-05-09T15:30:28.181Z,18.48
2024-05-09T15:32:57.883Z,18.52
2024-05-09T15:35:24.426Z,18.47
2024-05-09T15:37:50.872Z,18.75
2024-05-09T15:40:26.252Z,18.78
2024-05-09T15:43:01.816Z,18.59
2024-05-09T15:45:28.306Z,18.33
2024-05-09T15:47:54.768Z,18.48
2024-05-09T15:50:28.846Z,18.19
2024-05-09T15:53:02.829Z,18.41
2024-05-09T15:55:29.220Z,18.17
2024-05-09T15:57:55.653Z,18.36
2024-05-09T16:00:29.066Z,18.05
2024-05-09T16:03:03.097Z,18.19
2024-05-09T16:05:29.699Z,17.74
2024-05-09T16:07:56.164Z,18.17
2024-05-09T16:10:26.053Z,18.05
2024-05-09T16:12:58.313Z,18.20
2024-05-09T16:15:24.733Z,17.68
2024-05-09T16:17:51.133Z,17.72
2024-05-09T16:20:29.018Z,17.42
2024-05-09T16:23:03.183Z,17.36
2024-05-09T16:25:29.581Z,17.33
2024-05-09T16:27:56.116Z,16.99
2024-05-09T16:30:31.390Z,17.41
2024-05-09T16:33:01.563Z,17.45
2024-05-09T16:35:28.164Z,17.17
2024-05-09T16:37:54.560Z,17.20
2024-05-09T16:40:29.377Z,17.14
2024-05-09T16:43:01.231Z,16.82
2024-05-09T16:45:27.791Z,17.30
2024-05-09T16:47:54.287Z,17.15
2024-05-09T16:50:28.734Z,17.06
2024-05-09T16:52:58.499Z,17.23
2024-05-09T16:55:25.003Z,17.12
2024-05-09T16:57:51.529Z,16.87
2024-05-09T17:00:26.431Z,16.77
2024-05-09T17:03:02.785Z,16.61
2024-05-09T17:05:29.336Z,16.93
2024-05-09T17:07:55.867Z,17.07
2024-05-09T17:10:29.284Z,16.66
2024-05-09T17:12:59.171Z,16.55
2024-05-09T17:15:25.565Z,16.25
2024-05-09T17:17:52.027Z,16.35
2024-05-09T17:20:28.920Z,16.37
2024-05-09T17:23:00.032Z,15.98
2024-05-09T17:25:26.559Z,15.91
2024-05-09T17:27:53.053Z,16.34
2024-05-09T17:30:28.586Z,16.40
2024-05-09T17:32:59.239Z,15.72
2024-05-09T17:35:25.689Z,15.93
2024-05-09T17:37:52.092Z,15.74
2024-05-09T17:40:27.374Z,15.27
2024-05-09T17:42:59.061Z,15.55
2024-05-09T17:45:25.470Z,15.72
2024-05-09T17:47:52.109Z,15.55
2024-05-09T17:50:26.677Z,15.63
2024-05-09T17:52:57.504Z,14.98
2024-05-09T17:55:23.928Z,15.34
2024-05-09T17:57:50.388Z,15.38
2024-05-09T18:00:24.677Z,15.45
2024-05-09T18:03:00.454Z,15.80
2024-05-09T18:05:27.018Z,15.58
2024-05-09T18:07:53.460Z,14.72
2024-05-09T18:10:25.760Z,14.70
2024-05-09T18:12:59.325Z,15.42
2024-05-09T18:15:25.763Z,15.04
2024-05-09T18:17:52.309Z,14.96
2024-05-09T18:20:28.714Z,15.01
2024-05-09T18:23:03.988Z,14.38
2024-05-09T18:25:30.413Z,14.88
2024-05-09T18:27:56.831Z,14.75
2024-05-09T18:30:28.310Z,14.90
2024-05-09T18:33:00.792Z,14.80
2024-05-09T18:35:27.367Z,14.12
2024-05-09T18:37:53.809Z,13.64
2024-05-09T18:40:27.366Z,14.01
2024-05-09T18:42:57.828Z,13.77
2024-05-09T18:45:24.255Z,13.87
2024-05-09T18:47:50.760Z,13.73
2024-05-09T18:50:24.735Z,13.42
2024-05-09T18:52:58.665Z,13.74
2024-05-09T18:55:25.055Z,13.32
2024-05-09T18:57:51.510Z,13.52
2024-05-09T19:00:30.888Z,13.75
2024-05-09T19:03:02.036Z,13.96
2024-05-09T19:05:28.734Z,13.82
2024-05-09T19:07:55.204Z,14.15
2024-05-09T19:10:22.875Z,13.64
2024-05-09T19:12:52.640Z,13.80
2024-05-09T19:15:19.069Z,13.97
2024-05-09T19:17:45.592Z,13.71
2024-05-09T19:20:24.669Z,13.18
2024-05-09T19:22:55.235Z,13.41
2024-05-09T19:25:21.656Z,13.32
2024-05-09T19:27:48.105Z,13.73
2024-05-09T19:30:21.869Z,14.10
2024-05-09T19:32:56.509Z,14.07
2024-05-09T19:35:22.952Z,14.22
2024-05-09T19:37:49.334Z,13.29
2024-05-09T19:40:24.533Z,13.32
2024-05-09T19:42:56.559Z,13.75
2024-05-09T19:45:22.963Z,13.28
2024-05-09T19:47:49.511Z,13.76
2024-05-09T19:50:22.490Z,12.94
2024-05-09T19:52:53.255Z,12.64
2024-05-09T19:55:19.683Z,12.24
2024-05-09T19:57:46.078Z,12.53
2024-05-09T20:00:17.922Z,12.86
2024-05-09T20:02:48.769Z,12.59
2024-05-09T20:05:15.417Z,13.02
2024-05-09T20:07:41.906Z,12.32
2024-05-09T20:10:16.458Z,11.85
2024-05-09T20:12:47.090Z,11.86
2024-05-09T20:15:13.508Z,11.99
2024-05-09T20:17:39.968Z,12.11
2024-05-09T20:20:09.305Z,12.36
2024-05-09T20:22:40.072Z,12.53
2024-05-09T20:25:06.595Z,12.33
2024-05-09T20:27:33.072Z,12.82
2024-05-09T20:29:59.499Z,12.59
2024-05-09T20:32:26.070Z,12.26
2024-05-09T20:34:52.578Z,12.84
2024-05-09T20:37:19.001Z,12.66
2024-05-09T20:39:45.448Z,13.08
2024-05-09T20:42:11.855Z,13.01
2024-05-09T20:44:38.260Z,12.72
2024-05-09T20:47:04.653Z,13.10
2024-05-09T20:49:31.105Z,12.81
2024-05-09T20:51:57.665Z,12.51
2024-05-09T20:54:24.063Z,12.06
2024-05-09T20:56:50.459Z,12.02
2024-05-09T20:59:16.861Z,11.73
2024-05-09T21:01:44.968Z,11.85
2024-05-09T21:04:13.012Z,11.81
2024-05-09T21:06:39.602Z,11.51
2024-05-09T21:09:06.023Z,11.54
2024-05-09T21:11:32.550Z,11.60
2024-05-09T21:13:59.018Z,11.83
2024-05-09T21:16:25.565Z,11.96
2024-05-09T21:18:52.083Z,11.78
2024-05-09T21:21:18.518Z,11.31
2024-05-09T21:23:44.921Z,10.92
2024-05-09T21:26:11.335Z,11.00
2024-05-09T21:28:37.820Z,11.24
2024-05-09T21:31:04.302Z,11.27
2024-05-09T21:33:30.891Z,11.23
2024-05-09T21:35:57.395Z,11.32
2024-05-09T21:38:23.781Z,10.90
2024-05-09T21:40:50.336Z,11.02
2024-05-09T21:43:16.909Z,10.88
2024-05-09T21:45:43.479Z,10.87
2024-05-09T21:48:09.950Z,11.08
2024-05-09T21:50:40.645Z,11.05
2024-05-09T21:53:08.657Z,11.11
2024-05-09T21:55:35.155Z,11.10
2024-05-09T21:58:01.765Z,11.09
2024-05-09T22:00:35.273Z,11.06
2024-05-09T22:03:04.460Z,10.90
2024-05-09T22:05:31.213Z,11.12
2024-05-09T22:07:57.770Z,11.07
2024-05-09T22:10:30.599Z,11.16
2024-05-09T22:13:00.625Z,10.84
2024-05-09T22:15:27.139Z,10.83
2024-05-09T22:17:53.777Z,10.86
2024-05-09T22:20:28.717Z,10.94
2024-05-09T22:23:02.024Z,10.77
2024-05-09T22:25:30.428Z,11.01
2024-05-09T22:27:57.505Z,11.02
2024-05-09T22:30:31.815Z,11.03
2024-05-09T22:33:02.852Z,11.04
2024-05-09T22:35:29.335Z,10.97
2024-05-09T22:37:55.738Z,11.06
2024-05-09T22:40:29.532Z,11.23
2024-05-09T22:43:05.150Z,11.25
2024-05-09T22:45:31.672Z,10.97
2024-05-09T22:47:58.255Z,11.06
2024-05-09T22:50:27.024Z,10.83
2024-05-09T22:52:58.723Z,10.84
2024-05-09T22:55:25.104Z,10.71
2024-05-09T22:57:51.516Z,10.58
2024-05-09T23:00:21.764Z,10.91
2024-05-09T23:02:52.613Z,11.12
2024-05-09T23:05:19.171Z,11.24
2024-05-09T23:07:45.692Z,11.57
2024-05-09T23:10:17.196Z,11.16
2024-05-09T23:12:48.097Z,11.67
2024-05-09T23:15:14.571Z,11.84
2024-05-09T23:17:41.018Z,11.94
2024-05-09T23:20:11.345Z,12.05
2024-05-09T23:22:38.172Z,12.15
2024-05-09T23:25:04.637Z,12.09
2024-05-09T23:27:31.069Z,12.24
2024-05-09T23:29:57.463Z,12.06
2024-05-09T23:32:23.927Z,11.71
2024-05-09T23:34:50.384Z,11.33
2024-05-09T23:37:16.869Z,11.12
2024-05-09T23:39:43.330Z,10.24
2024-05-09T23:42:09.736Z,10.31
2024-05-09T23:44:36.120Z,10.23
2024-05-09T23:47:02.532Z,10.83
2024-05-09T23:49:28.989Z,11.05
2024-05-09T23:51:55.487Z,11.46
2024-05-09T23:54:22.005Z,11.12
2024-05-09T23:56:48.438Z,11.42
2024-05-09T23:59:14.841Z,11.58
